sensor_id;sensor_type;location;lat;lon;timestamp;temperature;humidity
8988;DHT22;4529;51.360;12.474;2023-12-20T00:00:05;6.90;99.90
8988;DHT22;4529;51.360;12.474;2023-12-20T00:05:12;6.80;99.90
8988;DHT22;4529;51.360;12.474;2023-12-20T00:10:15;6.80;99.90
8988;DHT22;4529;51.360;12.474;2023-12-20T00:15:19;6.80;99.90
8988;DHT22;4529;51.360;12.474;2023-12-20T00:20:22;6.80;99.90
8988;DHT22;4529;51.360;12.474;2023-12-20T00:25:26;6.70;99.90
8988;DHT22;4529;51.360;12.474;2023-12-20T00:30:29;6.70;99.90
8988;DHT22;4529;51.360;12.474;2023-12-20T00:35:33;6.60;99.90
8988;DHT22;4529;51.360;12.474;2023-12-20T00:40:37;6.60;99.90
8988;DHT22;4529;51.360;12.474;2023-12-20T00:45:41;6.60;99.90
8988;DHT22;4529;51.360;12.474;2023-12-20T00:50:46;6.60;99.90
8988;DHT22;4529;51.360;12.474;2023-12-20T00:55:49;6.50;99.90
8988;DHT22;4529;51.360;12.474;2023-12-20T01:00:52;6.50;99.90
8988;DHT22;4529;51.360;12.474;2023-12-20T01:05:59;6.50;99.90
8988;DHT22;4529;51.360;12.474;2023-12-20T01:11:05;6.50;99.90
8988;DHT22;4529;51.360;12.474;2023-12-20T01:16:12;6.50;99.90
8988;DHT22;4529;51.360;12.474;2023-12-20T01:21:16;6.50;99.90
8988;DHT22;4529;51.360;12.474;2023-12-20T01:26:19;6.50;99.90
8988;DHT22;4529;51.360;12.474;2023-12-20T01:31:22;6.50;99.90
8988;DHT22;4529;51.360;12.474;2023-12-20T01:36:26;6.50;99.90
8988;DHT22;4529;51.360;12.474;2023-12-20T01:41:31;6.50;99.90
8988;DHT22;4529;51.360;12.474;2023-12-20T01:46:34;6.50;99.90
8988;DHT22;4529;51.360;12.474;2023-12-20T01:51:38;6.50;99.90
8988;DHT22;4529;51.360;12.474;2023-12-20T01:56:43;6.60;99.90
8988;DHT22;4529;51.360;12.474;2023-12-20T02:01:46;6.50;99.90
8988;DHT22;4529;51.360;12.474;2023-12-20T02:06:49;6.50;99.90
8988;DHT22;4529;51.360;12.474;2023-12-20T02:11:53;6.50;99.90
8988;DHT22;4529;51.360;12.474;2023-12-20T02:16:56;6.60;99.90
8988;DHT22;4529;51.360;12.474;2023-12-20T02:22:12;6.60;99.90
8988;DHT22;4529;51.360;12.474;2023-12-20T02:27:15;6.60;99.90
8988;DHT22;4529;51.360;12.474;2023-12-20T02:32:20;6.60;99.90
8988;DHT22;4529;51.360;12.474;2023-12-20T02:37:32;6.60;99.90
8988;DHT22;4529;51.360;12.474;2023-12-20T02:42:35;6.50;99.90
8988;DHT22;4529;51.360;12.474;2023-12-20T02:47:40;6.60;99.90
8988;DHT22;4529;51.360;12.474;2023-12-20T02:52:46;6.50;99.90
8988;DHT22;4529;51.360;12.474;2023-12-20T02:57:50;6.60;99.90
8988;DHT22;4529;51.360;12.474;2023-12-20T03:02:53;6.60;99.90
8988;DHT22;4529;51.360;12.474;2023-12-20T03:07:57;6.50;99.90
8988;DHT22;4529;51.360;12.474;2023-12-20T03:13:01;6.60;99.90
8988;DHT22;4529;51.360;12.474;2023-12-20T03:18:05;6.50;99.90
8988;DHT22;4529;51.360;12.474;2023-12-20T03:23:09;6.50;99.90
8988;DHT22;4529;51.360;12.474;2023-12-20T03:28:14;6.50;99.90
8988;DHT22;4529;51.360;12.474;2023-12-20T03:33:16;6.60;99.90
8988;DHT22;4529;51.360;12.474;2023-12-20T03:38:20;6.60;99.90
8988;DHT22;4529;51.360;12.474;2023-12-20T03:43:23;6.60;99.90
8988;DHT22;4529;51.360;12.474;2023-12-20T03:48:26;6.60;99.90
8988;DHT22;4529;51.360;12.474;2023-12-20T03:53:31;6.60;99.90
8988;DHT22;4529;51.360;12.474;2023-12-20T03:58:35;6.50;99.90
8988;DHT22;4529;51.360;12.474;2023-12-20T04:03:40;6.60;99.90
8988;DHT22;4529;51.360;12.474;2023-12-20T04:08:43;6.60;99.90
8988;DHT22;4529;51.360;12.474;2023-12-20T04:13:47;6.60;99.90
8988;DHT22;4529;51.360;12.474;2023-12-20T04:18:51;6.60;99.90
8988;DHT22;4529;51.360;12.474;2023-12-20T04:23:55;6.60;99.90
8988;DHT22;4529;51.360;12.474;2023-12-20T04:28:58;6.60;99.90
8988;DHT22;4529;51.360;12.474;2023-12-20T04:34:02;6.60;99.90
8988;DHT22;4529;51.360;12.474;2023-12-20T04:39:05;6.70;99.90
8988;DHT22;4529;51.360;12.474;2023-12-20T04:44:09;6.70;99.90
8988;DHT22;4529;51.360;12.474;2023-12-20T04:49:13;6.70;99.90
8988;DHT22;4529;51.360;12.474;2023-12-20T04:54:17;6.80;99.90
8988;DHT22;4529;51.360;12.474;2023-12-20T04:59:21;6.90;99.90
8988;DHT22;4529;51.360;12.474;2023-12-20T05:04:25;6.90;99.90
8988;DHT22;4529;51.360;12.474;2023-12-20T05:09:29;7.00;99.90
8988;DHT22;4529;51.360;12.474;2023-12-20T05:14:33;7.00;99.90
8988;DHT22;4529;51.360;12.474;2023-12-20T05:19:36;7.00;99.90
8988;DHT22;4529;51.360;12.474;2023-12-20T05:24:40;7.10;99.90
8988;DHT22;4529;51.360;12.474;2023-12-20T05:29:45;7.20;99.90
8988;DHT22;4529;51.360;12.474;2023-12-20T05:34:49;7.20;99.90
8988;DHT22;4529;51.360;12.474;2023-12-20T05:39:53;7.20;99.90
8988;DHT22;4529;51.360;12.474;2023-12-20T05:44:57;7.10;99.90
8988;DHT22;4529;51.360;12.474;2023-12-20T05:50:00;7.10;99.90
8988;DHT22;4529;51.360;12.474;2023-12-20T05:55:04;7.00;99.90
8988;DHT22;4529;51.360;12.474;2023-12-20T06:00:08;6.90;99.90
8988;DHT22;4529;51.360;12.474;2023-12-20T06:05:11;6.90;99.90
8988;DHT22;4529;51.360;12.474;2023-12-20T06:10:15;6.90;99.90
8988;DHT22;4529;51.360;12.474;2023-12-20T06:15:18;6.90;99.90
8988;DHT22;4529;51.360;12.474;2023-12-20T06:20:21;7.00;99.90
8988;DHT22;4529;51.360;12.474;2023-12-20T06:25:26;7.10;99.90
8988;DHT22;4529;51.360;12.474;2023-12-20T06:30:30;7.20;99.90
8988;DHT22;4529;51.360;12.474;2023-12-20T06:35:34;7.10;99.90
8988;DHT22;4529;51.360;12.474;2023-12-20T06:40:38;7.00;99.90
8988;DHT22;4529;51.360;12.474;2023-12-20T06:45:42;6.80;99.90
8988;DHT22;4529;51.360;12.474;2023-12-20T06:50:46;6.70;99.90
8988;DHT22;4529;51.360;12.474;2023-12-20T06:55:50;6.70;99.90
8988;DHT22;4529;51.360;12.474;2023-12-20T07:00:53;6.70;99.90
8988;DHT22;4529;51.360;12.474;2023-12-20T07:05:57;6.60;99.90
8988;DHT22;4529;51.360;12.474;2023-12-20T07:11:00;6.60;99.90
8988;DHT22;4529;51.360;12.474;2023-12-20T07:16:04;6.60;99.90
8988;DHT22;4529;51.360;12.474;2023-12-20T07:21:07;6.60;99.90
8988;DHT22;4529;51.360;12.474;2023-12-20T07:26:11;6.50;99.90
8988;DHT22;4529;51.360;12.474;2023-12-20T07:31:18;6.50;99.90
8988;DHT22;4529;51.360;12.474;2023-12-20T07:36:22;6.50;99.90
8988;DHT22;4529;51.360;12.474;2023-12-20T07:41:26;6.50;99.90
8988;DHT22;4529;51.360;12.474;2023-12-20T07:46:30;6.50;99.90
8988;DHT22;4529;51.360;12.474;2023-12-20T07:51:34;6.60;99.90
8988;DHT22;4529;51.360;12.474;2023-12-20T07:56:39;6.60;99.90
8988;DHT22;4529;51.360;12.474;2023-12-20T08:01:42;6.50;99.90
8988;DHT22;4529;51.360;12.474;2023-12-20T08:06:46;6.60;99.90
8988;DHT22;4529;51.360;12.474;2023-12-20T08:11:50;6.60;99.90
8988;DHT22;4529;51.360;12.474;2023-12-20T08:16:54;6.70;99.90
8988;DHT22;4529;51.360;12.474;2023-12-20T08:21:58;6.70;99.90
8988;DHT22;4529;51.360;12.474;2023-12-20T08:27:02;6.60;99.90
8988;DHT22;4529;51.360;12.474;2023-12-20T08:32:05;6.60;99.90
8988;DHT22;4529;51.360;12.474;2023-12-20T08:37:08;6.70;99.90
8988;DHT22;4529;51.360;12.474;2023-12-20T08:42:13;6.70;99.90
8988;DHT22;4529;51.360;12.474;2023-12-20T08:47:17;6.70;99.90
8988;DHT22;4529;51.360;12.474;2023-12-20T08:52:21;6.60;99.90
8988;DHT22;4529;51.360;12.474;2023-12-20T08:57:25;6.60;99.90
8988;DHT22;4529;51.360;12.474;2023-12-20T09:02:29;6.70;99.90
8988;DHT22;4529;51.360;12.474;2023-12-20T09:07:33;6.80;99.90
8988;DHT22;4529;51.360;12.474;2023-12-20T09:12:38;6.80;99.90
8988;DHT22;4529;51.360;12.474;2023-12-20T09:17:41;6.80;99.90
8988;DHT22;4529;51.360;12.474;2023-12-20T09:22:44;6.80;99.90
8988;DHT22;4529;51.360;12.474;2023-12-20T09:27:48;6.90;99.90
8988;DHT22;4529;51.360;12.474;2023-12-20T09:32:52;7.00;99.90
8988;DHT22;4529;51.360;12.474;2023-12-20T09:37:55;6.90;99.90
8988;DHT22;4529;51.360;12.474;2023-12-20T09:43:04;7.10;99.90
8988;DHT22;4529;51.360;12.474;2023-12-20T09:48:08;7.30;99.90
8988;DHT22;4529;51.360;12.474;2023-12-20T09:53:14;7.40;99.90
8988;DHT22;4529;51.360;12.474;2023-12-20T09:58:17;7.50;99.90
8988;DHT22;4529;51.360;12.474;2023-12-20T10:03:25;7.60;99.90
8988;DHT22;4529;51.360;12.474;2023-12-20T10:08:27;7.60;99.90
8988;DHT22;4529;51.360;12.474;2023-12-20T10:13:30;7.70;99.90
8988;DHT22;4529;51.360;12.474;2023-12-20T10:18:34;7.70;99.90
8988;DHT22;4529;51.360;12.474;2023-12-20T10:23:38;7.60;99.90
8988;DHT22;4529;51.360;12.474;2023-12-20T10:28:43;7.60;99.90
8988;DHT22;4529;51.360;12.474;2023-12-20T10:33:50;7.60;99.90
8988;DHT22;4529;51.360;12.474;2023-12-20T10:38:54;7.70;99.90
8988;DHT22;4529;51.360;12.474;2023-12-20T10:44:01;7.80;99.90
8988;DHT22;4529;51.360;12.474;2023-12-20T10:49:05;7.80;99.90
8988;DHT22;4529;51.360;12.474;2023-12-20T10:54:09;7.90;99.90
8988;DHT22;4529;51.360;12.474;2023-12-20T10:59:13;8.10;99.90
8988;DHT22;4529;51.360;12.474;2023-12-20T11:04:23;8.30;99.90
8988;DHT22;4529;51.360;12.474;2023-12-20T11:09:35;8.30;99.90
8988;DHT22;4529;51.360;12.474;2023-12-20T11:14:47;8.60;99.90
8988;DHT22;4529;51.360;12.474;2023-12-20T11:25:06;8.70;99.90
8988;DHT22;4529;51.360;12.474;2023-12-20T11:30:11;8.70;99.90
8988;DHT22;4529;51.360;12.474;2023-12-20T11:40:20;8.80;99.90
8988;DHT22;4529;51.360;12.474;2023-12-20T11:45:24;8.80;99.90
8988;DHT22;4529;51.360;12.474;2023-12-20T11:50:26;8.80;99.90
8988;DHT22;4529;51.360;12.474;2023-12-20T11:55:31;8.80;99.90
8988;DHT22;4529;51.360;12.474;2023-12-20T12:00:35;8.80;99.90
8988;DHT22;4529;51.360;12.474;2023-12-20T12:05:39;8.80;99.90
8988;DHT22;4529;51.360;12.474;2023-12-20T12:10:43;8.80;99.90
8988;DHT22;4529;51.360;12.474;2023-12-20T12:15:46;8.70;99.90
8988;DHT22;4529;51.360;12.474;2023-12-20T12:20:49;8.80;99.90
8988;DHT22;4529;51.360;12.474;2023-12-20T12:25:53;8.80;99.90
8988;DHT22;4529;51.360;12.474;2023-12-20T12:30:59;8.80;99.90
8988;DHT22;4529;51.360;12.474;2023-12-20T12:36:02;8.80;99.90
8988;DHT22;4529;51.360;12.474;2023-12-20T12:41:07;8.80;99.90
8988;DHT22;4529;51.360;12.474;2023-12-20T12:46:10;8.80;99.90
8988;DHT22;4529;51.360;12.474;2023-12-20T12:51:14;8.80;99.90
8988;DHT22;4529;51.360;12.474;2023-12-20T12:56:18;8.80;99.90
8988;DHT22;4529;51.360;12.474;2023-12-20T13:01:22;8.80;99.90
8988;DHT22;4529;51.360;12.474;2023-12-20T13:06:26;8.90;99.90
8988;DHT22;4529;51.360;12.474;2023-12-20T13:11:30;8.90;99.90
8988;DHT22;4529;51.360;12.474;2023-12-20T13:16:33;8.80;99.90
8988;DHT22;4529;51.360;12.474;2023-12-20T13:21:37;8.90;99.90
8988;DHT22;4529;51.360;12.474;2023-12-20T13:26:40;8.80;99.90
8988;DHT22;4529;51.360;12.474;2023-12-20T13:31:44;8.80;99.90
8988;DHT22;4529;51.360;12.474;2023-12-20T13:36:48;8.80;99.90
8988;DHT22;4529;51.360;12.474;2023-12-20T13:41:52;8.80;99.90
8988;DHT22;4529;51.360;12.474;2023-12-20T13:46:57;8.80;99.90
8988;DHT22;4529;51.360;12.474;2023-12-20T13:52:01;8.80;99.90
8988;DHT22;4529;51.360;12.474;2023-12-20T13:57:04;8.80;99.90
8988;DHT22;4529;51.360;12.474;2023-12-20T14:02:08;8.80;99.90
8988;DHT22;4529;51.360;12.474;2023-12-20T14:07:12;8.80;99.90
8988;DHT22;4529;51.360;12.474;2023-12-20T14:12:16;8.70;99.90
8988;DHT22;4529;51.360;12.474;2023-12-20T14:17:20;8.80;99.90
8988;DHT22;4529;51.360;12.474;2023-12-20T14:22:23;8.80;99.90
8988;DHT22;4529;51.360;12.474;2023-12-20T14:27:27;8.70;99.90
8988;DHT22;4529;51.360;12.474;2023-12-20T14:32:31;8.70;99.90
8988;DHT22;4529;51.360;12.474;2023-12-20T14:37:35;8.70;99.90
8988;DHT22;4529;51.360;12.474;2023-12-20T14:42:39;8.70;99.90
8988;DHT22;4529;51.360;12.474;2023-12-20T14:47:43;8.60;99.90
8988;DHT22;4529;51.360;12.474;2023-12-20T14:52:46;8.60;99.90
8988;DHT22;4529;51.360;12.474;2023-12-20T14:57:50;8.60;99.90
8988;DHT22;4529;51.360;12.474;2023-12-20T15:02:53;8.60;99.90
8988;DHT22;4529;51.360;12.474;2023-12-20T15:07:57;8.60;99.90
8988;DHT22;4529;51.360;12.474;2023-12-20T15:13:01;8.60;99.90
8988;DHT22;4529;51.360;12.474;2023-12-20T15:18:04;8.60;99.90
8988;DHT22;4529;51.360;12.474;2023-12-20T15:23:08;8.60;99.90
8988;DHT22;4529;51.360;12.474;2023-12-20T15:28:11;8.60;99.90
8988;DHT22;4529;51.360;12.474;2023-12-20T15:33:14;8.50;99.90
8988;DHT22;4529;51.360;12.474;2023-12-20T15:38:18;8.50;99.90
8988;DHT22;4529;51.360;12.474;2023-12-20T15:43:22;8.50;99.90
8988;DHT22;4529;51.360;12.474;2023-12-20T15:48:26;8.50;99.90
8988;DHT22;4529;51.360;12.474;2023-12-20T15:53:30;8.50;99.90
8988;DHT22;4529;51.360;12.474;2023-12-20T15:58:34;8.40;99.90
8988;DHT22;4529;51.360;12.474;2023-12-20T16:03:37;8.40;99.90
8988;DHT22;4529;51.360;12.474;2023-12-20T16:08:41;8.40;99.90
8988;DHT22;4529;51.360;12.474;2023-12-20T16:13:45;8.40;99.90
8988;DHT22;4529;51.360;12.474;2023-12-20T16:18:50;8.40;99.90
8988;DHT22;4529;51.360;12.474;2023-12-20T16:23:53;8.40;99.90
8988;DHT22;4529;51.360;12.474;2023-12-20T16:28:57;8.30;99.90
8988;DHT22;4529;51.360;12.474;2023-12-20T16:34:02;8.30;99.90
8988;DHT22;4529;51.360;12.474;2023-12-20T16:39:06;8.30;99.90
8988;DHT22;4529;51.360;12.474;2023-12-20T16:44:09;8.30;99.90
8988;DHT22;4529;51.360;12.474;2023-12-20T16:49:13;8.20;99.90
8988;DHT22;4529;51.360;12.474;2023-12-20T16:54:16;8.10;99.90
8988;DHT22;4529;51.360;12.474;2023-12-20T16:59:20;7.90;99.90
8988;DHT22;4529;51.360;12.474;2023-12-20T17:04:24;7.90;99.90
8988;DHT22;4529;51.360;12.474;2023-12-20T17:09:28;7.90;99.90
8988;DHT22;4529;51.360;12.474;2023-12-20T17:14:33;7.80;99.90
8988;DHT22;4529;51.360;12.474;2023-12-20T17:19:36;7.80;99.90
8988;DHT22;4529;51.360;12.474;2023-12-20T17:24:39;7.80;99.90
8988;DHT22;4529;51.360;12.474;2023-12-20T17:29:43;7.70;99.90
8988;DHT22;4529;51.360;12.474;2023-12-20T17:34:47;7.70;99.90
8988;DHT22;4529;51.360;12.474;2023-12-20T17:39:50;7.70;99.90
8988;DHT22;4529;51.360;12.474;2023-12-20T17:44:54;7.60;99.90
8988;DHT22;4529;51.360;12.474;2023-12-20T17:49:57;7.60;99.90
8988;DHT22;4529;51.360;12.474;2023-12-20T17:55:01;7.60;99.90
8988;DHT22;4529;51.360;12.474;2023-12-20T18:00:20;7.50;99.90
8988;DHT22;4529;51.360;12.474;2023-12-20T18:05:23;7.50;99.90
8988;DHT22;4529;51.360;12.474;2023-12-20T18:10:27;7.50;99.90
8988;DHT22;4529;51.360;12.474;2023-12-20T18:15:31;7.40;99.90
8988;DHT22;4529;51.360;12.474;2023-12-20T18:20:35;7.40;99.90
8988;DHT22;4529;51.360;12.474;2023-12-20T18:25:39;7.40;99.90
8988;DHT22;4529;51.360;12.474;2023-12-20T18:30:43;7.40;99.90
8988;DHT22;4529;51.360;12.474;2023-12-20T18:35:47;7.40;99.90
8988;DHT22;4529;51.360;12.474;2023-12-20T18:40:50;7.50;99.90
8988;DHT22;4529;51.360;12.474;2023-12-20T18:45:54;7.60;99.90
8988;DHT22;4529;51.360;12.474;2023-12-20T18:50:58;7.60;99.90
8988;DHT22;4529;51.360;12.474;2023-12-20T18:56:02;7.60;99.90
8988;DHT22;4529;51.360;12.474;2023-12-20T19:01:06;7.60;99.90
8988;DHT22;4529;51.360;12.474;2023-12-20T19:06:10;7.60;99.90
8988;DHT22;4529;51.360;12.474;2023-12-20T19:11:14;7.60;99.90
8988;DHT22;4529;51.360;12.474;2023-12-20T19:16:18;7.60;99.90
8988;DHT22;4529;51.360;12.474;2023-12-20T19:21:21;7.60;99.90
8988;DHT22;4529;51.360;12.474;2023-12-20T19:26:25;7.60;99.90
8988;DHT22;4529;51.360;12.474;2023-12-20T19:31:28;7.60;99.90
8988;DHT22;4529;51.360;12.474;2023-12-20T19:36:32;7.70;99.90
8988;DHT22;4529;51.360;12.474;2023-12-20T19:41:36;7.80;99.90
8988;DHT22;4529;51.360;12.474;2023-12-20T19:46:40;7.80;99.90
8988;DHT22;4529;51.360;12.474;2023-12-20T19:51:45;7.80;99.90
8988;DHT22;4529;51.360;12.474;2023-12-20T19:56:48;7.80;99.90
8988;DHT22;4529;51.360;12.474;2023-12-20T20:01:52;7.80;99.90
8988;DHT22;4529;51.360;12.474;2023-12-20T20:06:56;8.00;99.90
8988;DHT22;4529;51.360;12.474;2023-12-20T20:12:01;8.00;99.90
8988;DHT22;4529;51.360;12.474;2023-12-20T20:17:05;8.00;99.90
8988;DHT22;4529;51.360;12.474;2023-12-20T20:22:08;8.10;99.90
8988;DHT22;4529;51.360;12.474;2023-12-20T20:27:13;8.10;99.90
8988;DHT22;4529;51.360;12.474;2023-12-20T20:32:17;8.10;99.90
8988;DHT22;4529;51.360;12.474;2023-12-20T20:37:21;8.20;99.90
8988;DHT22;4529;51.360;12.474;2023-12-20T20:42:24;8.20;99.90
8988;DHT22;4529;51.360;12.474;2023-12-20T20:47:28;8.20;99.90
8988;DHT22;4529;51.360;12.474;2023-12-20T20:52:31;8.20;99.90
8988;DHT22;4529;51.360;12.474;2023-12-20T20:57:35;8.20;99.90
8988;DHT22;4529;51.360;12.474;2023-12-20T21:02:38;8.00;99.90
8988;DHT22;4529;51.360;12.474;2023-12-20T21:07:42;7.90;99.90
8988;DHT22;4529;51.360;12.474;2023-12-20T21:12:46;7.80;99.90
8988;DHT22;4529;51.360;12.474;2023-12-20T21:17:51;7.80;99.90
8988;DHT22;4529;51.360;12.474;2023-12-20T21:22:55;7.80;99.90
8988;DHT22;4529;51.360;12.474;2023-12-20T21:27:59;7.80;99.90
8988;DHT22;4529;51.360;12.474;2023-12-20T21:33:06;7.80;99.90
8988;DHT22;4529;51.360;12.474;2023-12-20T21:38:05;7.80;99.90
8988;DHT22;4529;51.360;12.474;2023-12-20T21:43:09;8.00;99.90
8988;DHT22;4529;51.360;12.474;2023-12-20T21:48:13;8.10;99.90
8988;DHT22;4529;51.360;12.474;2023-12-20T21:53:17;8.30;99.90
8988;DHT22;4529;51.360;12.474;2023-12-20T21:58:21;8.30;99.90
8988;DHT22;4529;51.360;12.474;2023-12-20T22:03:26;8.40;99.90
8988;DHT22;4529;51.360;12.474;2023-12-20T22:08:30;8.40;99.90
8988;DHT22;4529;51.360;12.474;2023-12-20T22:13:34;8.40;99.90
8988;DHT22;4529;51.360;12.474;2023-12-20T22:18:37;8.40;99.90
8988;DHT22;4529;51.360;12.474;2023-12-20T22:23:41;8.40;99.90
8988;DHT22;4529;51.360;12.474;2023-12-20T22:28:45;8.50;99.90
8988;DHT22;4529;51.360;12.474;2023-12-20T22:33:49;8.40;99.90
8988;DHT22;4529;51.360;12.474;2023-12-20T22:38:52;8.50;99.90
8988;DHT22;4529;51.360;12.474;2023-12-20T22:43:56;8.50;99.90
8988;DHT22;4529;51.360;12.474;2023-12-20T22:49:00;8.50;99.90
8988;DHT22;4529;51.360;12.474;2023-12-20T22:54:04;8.50;99.90
8988;DHT22;4529;51.360;12.474;2023-12-20T22:59:08;8.50;99.90
8988;DHT22;4529;51.360;12.474;2023-12-20T23:04:11;8.50;99.90
8988;DHT22;4529;51.360;12.474;2023-12-20T23:09:15;8.50;99.90
8988;DHT22;4529;51.360;12.474;2023-12-20T23:14:18;8.60;99.90
8988;DHT22;4529;51.360;12.474;2023-12-20T23:19:22;8.60;99.90
8988;DHT22;4529;51.360;12.474;2023-12-20T23:24:26;8.60;99.90
8988;DHT22;4529;51.360;12.474;2023-12-20T23:29:30;8.60;99.90
8988;DHT22;4529;51.360;12.474;2023-12-20T23:34:35;8.50;99.90
8988;DHT22;4529;51.360;12.474;2023-12-20T23:39:38;8.50;99.90
8988;DHT22;4529;51.360;12.474;2023-12-20T23:44:41;8.50;99.90
8988;DHT22;4529;51.360;12.474;2023-12-20T23:49:45;8.40;99.90
8988;DHT22;4529;51.360;12.474;2023-12-20T23:54:48;8.40;99.90
8988;DHT22;4529;51.360;12.474;2023-12-20T23:59:52;8.30;99.90
